KWLD/WLD METAR and TAF weather

Enter ICAO airport designator
Station Type Date Time Source
KWLD METAR 2020/11/25 22:54 UTC NOAA

KWLD 252254Z AUTO 31004KT 10SM CLR 08/00 A3000 RMK AO2 SLP163 T00830000


Station Type Date Time Source
KWLD Decoded METAR 2020/11/25 22:54 UTC NOAA

STROTHER FIELD, KS, United States (KWLD) 37-10N 97-02W 350M
Nov 25, 2020 - 05:54 PM EST / 2020.11.25 2254 UTC
Wind: from the NW (310 degrees) at 5 MPH (4 KT):0
Visibility: 10 mile(s):0
Sky conditions: clear
Temperature: 46.9 F (8.3 C)
Dew Point: 32.0 F (0.0 C)
Relative Humidity: 55%
Pressure (altimeter): 30 in. Hg (1015 hPa)
ob: KWLD 252254Z AUTO 31004KT 10SM CLR 08/00 A3000 RMK AO2 SLP163 T00830000
cycle: 23

Station Type Date Time Source
KWLD TAF UTC NOAA

Error!

Example: see airport list